Time;durP1;ratioP1;P1;durP2;ratioP2;P2;SDS_P1;SDS_P2;PMS_P1;PMS_P2;Temp;Humidity;BMP_temperature;BMP_pressure;BME280_temperature;BME280_humidity;BME280_pressure;Samples;Min_cycle;Max_cycle;Signal;HPM_P1;HPM_P2
2024/05/05 00:00:12;;;;;;;;;;;;;;;;;;5300731;26;19930;-72
2024/05/05 00:02:41;;;;;;;;;;;;;;;;;;5300561;27;20062;-72
2024/05/05 00:05:09;;;;;;;;;;;;;;;;;;5302110;27;19931;-71
2024/05/05 00:07:38;;;;;;;;;;;;;;;;;;5302207;26;19934;-72
2024/05/05 00:10:07;;;;;;;;;;;;;;;;;;5303054;27;19931;-73
2024/05/05 00:12:36;;;;;;;;;;;;;;;;;;5301548;26;19937;-71
2024/05/05 00:15:05;;;;;;;;;;;;;;;;;;5299850;26;19950;-72
2024/05/05 00:17:34;;;;;;;;;;;;;;;;;;5302183;27;19946;-73
2024/05/05 00:20:03;;;;;;;;;;;;;;;;;;5299254;27;20019;-72
2024/05/05 00:22:32;;;;;;;;;;;;;;;;;;5301040;26;20278;-71
2024/05/05 00:24:58;;;;;;;;;;;;;;;;;;5302476;26;20451;-71
2024/05/05 00:27:26;;;;;;;;;;;;;;;;;;5302592;26;20283;-72
2024/05/05 00:29:55;;;;;;;;;;;;;;;;;;5298780;27;19938;-73
2024/05/05 00:32:24;;;;;;;;;;;;;;;;;;5297403;26;19930;-72
2024/05/05 00:34:52;;;;;;;;;;;;;;;;;;5298425;27;19938;-73
2024/05/05 00:37:21;;;;;;;;;;;;;;;;;;5301579;26;19930;-73
2024/05/05 00:39:50;;;;;;;;;;;;;;;;;;5301906;26;19941;-73
2024/05/05 00:42:19;;;;;;;;;;;;;;;;;;5300041;26;19938;-73
2024/05/05 00:44:47;;;;;;;;;;;;;;;;;;5301363;27;19941;-72
2024/05/05 00:47:16;;;;;;;;;;;;;;;;;;5300350;26;19931;-72
2024/05/05 00:49:45;;;;;;;;;;;;;;;;;;5300817;27;19931;-72
2024/05/05 00:52:13;;;;;;;;;;;;;;;;;;5302067;26;19942;-73
2024/05/05 00:54:42;;;;;;;;;;;;;;;;;;5302561;27;19938;-71
2024/05/05 00:57:11;;;;;;;;;;;;;;;;;;5309261;27;19953;-72
2024/05/05 00:59:40;;;;;;;;;;;;;;;;;;5309096;26;19931;-73
2024/05/05 01:02:08;;;;;;;;;;;;;;;;;;5307895;26;19938;-73
2024/05/05 01:04:37;;;;;;;;;;;;;;;;;;5307569;26;20289;-73
2024/05/05 01:07:06;;;;;;;;;;;;;;;;;;5309597;26;19934;-72
2024/05/05 01:09:35;;;;;;;;;;;;;;;;;;5311642;27;19942;-73
2024/05/05 01:12:03;;;;;;;;;;;;;;;;;;5312740;26;19938;-72
2024/05/05 01:14:32;;;;;;;;;;;;;;;;;;5311608;27;19938;-72
2024/05/05 01:17:01;;;;;;;;;;;;;;;;;;5313914;26;19934;-72
2024/05/05 01:19:29;;;;;;;;;;;;;;;;;;5313240;26;19938;-72
2024/05/05 01:21:58;;;;;;;;;;;;;;;;;;5294815;26;19938;-72
2024/05/05 01:24:27;;;;;;;;;;;;;;;;;;5300012;27;19938;-72
2024/05/05 01:26:56;;;;;;;;;;;;;;;;;;5304254;27;19930;-73
2024/05/05 01:29:24;;;;;;;;;;;;;;;;;;5299876;27;19937;-71
2024/05/05 01:31:53;;;;;;;;;;;;;;;;;;5302527;26;19939;-72
2024/05/05 01:34:22;;;;;;;;;;;;;;;;;;5301064;27;19938;-72
2024/05/05 01:36:50;;;;;;;;;;;;;;;;;;5304721;27;19930;-72
2024/05/05 01:39:19;;;;;;;;;;;;;;;;;;5301847;27;19963;-73
2024/05/05 01:41:48;;;;;;;;;;;;;;;;;;5298477;27;19980;-72
2024/05/05 01:44:16;;;;;;;;;;;;;;;;;;5299665;27;19937;-71
2024/05/05 01:46:45;;;;;;;;;;;;;;;;;;5297850;26;19939;-71
2024/05/05 01:49:14;;;;;;;;;;;;;;;;;;5300438;26;19938;-72
2024/05/05 01:51:43;;;;;;;;;;;;;;;;;;5299626;27;19938;-72
2024/05/05 01:54:12;;;;;;;;;;;;;;;;;;5300883;26;20446;-71
2024/05/05 01:56:41;;;;;;;;;;;;;;;;;;5299419;26;20266;-72
2024/05/05 01:59:09;;;;;;;;;;;;;;;;;;5298314;26;20798;-72
2024/05/05 02:01:38;;;;;;;;;;;;;;;;;;5296530;26;20282;-71
2024/05/05 02:04:07;;;;;;;;;;;;;;;;;;5299781;27;19932;-72
2024/05/05 02:06:35;;;;;;;;;;;;;;;;;;5300118;26;19930;-72
2024/05/05 02:09:04;;;;;;;;;;;;;;;;;;5297455;27;19931;-72
2024/05/05 02:11:33;;;;;;;;;;;;;;;;;;5296312;27;20372;-72
2024/05/05 02:14:01;;;;;;;;;;;;;;;;;;5292299;27;20374;-73
2024/05/05 02:16:30;;;;;;;;;;;;;;;;;;5291024;27;19930;-73
2024/05/05 02:18:59;;;;;;;;;;;;;;;;;;5296038;26;19946;-72
2024/05/05 02:21:27;;;;;;;;;;;;;;;;;;5293908;27;19938;-73
2024/05/05 02:23:56;;;;;;;;;;;;;;;;;;5298224;27;19941;-73
2024/05/05 02:26:25;;;;;;;;;;;;;;;;;;5299356;26;20351;-72
2024/05/05 02:28:54;;;;;;;;;;;;;;;;;;5296676;26;19938;-71
2024/05/05 02:31:22;;;;;;;;;;;;;;;;;;5297143;26;20321;-72
2024/05/05 02:33:51;;;;;;;;;;;;;;;;;;5298163;27;19931;-72
2024/05/05 02:36:20;;;;;;;;;;;;;;;;;;5296484;26;19949;-73
2024/05/05 02:38:49;;;;;;;;;;;;;;;;;;5294690;27;20379;-72
2024/05/05 02:41:18;;;;;;;;;;;;;;;;;;5297359;27;19939;-72
2024/05/05 02:43:47;;;;;;;;;;;;;;;;;;5296823;27;19939;-73
2024/05/05 02:46:15;;;;;;;;;;;;;;;;;;5296472;27;20264;-74
2024/05/05 02:48:44;;;;;;;;;;;;;;;;;;5297159;27;19939;-71
2024/05/05 02:51:13;;;;;;;;;;;;;;;;;;5298485;27;19942;-70
2024/05/05 02:53:42;;;;;;;;;;;;;;;;;;5294311;26;20743;-71
2024/05/05 02:56:10;;;;;;;;;;;;;;;;;;5291474;27;19939;-71
2024/05/05 02:58:39;;;;;;;;;;;;;;;;;;5294736;26;20003;-70
2024/05/05 03:01:08;;;;;;;;;;;;;;;;;;5296070;27;20386;-71
2024/05/05 03:03:36;;;;;;;;;;;;;;;;;;5295404;26;19931;-70
2024/05/05 03:06:05;;;;;;;;;;;;;;;;;;5299426;26;19931;-71
2024/05/05 03:08:34;;;;;;;;;;;;;;;;;;5298561;27;19931;-70
2024/05/05 03:11:02;;;;;;;;;;;;;;;;;;5304318;26;19937;-70
2024/05/05 03:13:31;;;;;;;;;;;;;;;;;;5306006;27;20386;-71
2024/05/05 03:16:00;;;;;;;;;;;;;;;;;;5306535;26;19930;-70
2024/05/05 03:18:29;;;;;;;;;;;;;;;;;;5304278;27;20021;-70
2024/05/05 03:20:58;;;;;;;;;;;;;;;;;;5292410;27;19931;-71
2024/05/05 03:23:26;;;;;;;;;;;;;;;;;;5271864;27;20371;-70
2024/05/05 03:25:55;;;;;;;;;;;;;;;;;;5304822;27;19941;-71
2024/05/05 03:28:24;;;;;;;;;;;;;;;;;;5303736;26;19931;-71
2024/05/05 03:30:52;;;;;;;;;;;;;;;;;;5307437;26;19950;-71
2024/05/05 03:33:22;;;;;;;;;;;;;;;;;;5307623;27;20281;-70
2024/05/05 03:35:51;;;;;;;;;;;;;;;;;;5307087;26;19978;-70
2024/05/05 03:38:20;;;;;;;;;;;;;;;;;;5307520;27;19931;-70
2024/05/05 03:40:48;;;;;;;;;;;;;;;;;;5287494;27;19934;-70
2024/05/05 03:43:17;;;;;;;;;;;;;;;;;;5307001;26;19930;-71
2024/05/05 03:45:46;;;;;;;;;;;;;;;;;;5304779;26;19930;-71
2024/05/05 03:48:14;;;;;;;;;;;;;;;;;;5307112;27;19931;-71
2024/05/05 03:50:43;;;;;;;;;;;;;;;;;;5306437;26;20260;-71
2024/05/05 03:53:12;;;;;;;;;;;;;;;;;;5306656;26;19935;-71
2024/05/05 03:55:41;;;;;;;;;;;;;;;;;;5305795;27;20370;-71
2024/05/05 03:58:09;;;;;;;;;;;;;;;;;;5287311;27;20453;-72
2024/05/05 04:00:38;;;;;;;;;;;;;;;;;;5303761;26;20276;-71
2024/05/05 04:03:07;;;;;;;;;;;;;;;;;;5298513;26;20378;-72
2024/05/05 04:05:35;;;;;;;;;;;;;;;;;;5305690;27;20282;-72
2024/05/05 04:08:04;;;;;;;;;;;;;;;;;;5303622;27;19930;-70
2024/05/05 04:10:33;;;;;;;;;;;;;;;;;;5304223;26;20821;-71
2024/05/05 04:13:02;;;;;;;;;;;;;;;;;;5305021;26;19938;-72
2024/05/05 04:15:30;;;;;;;;;;;;;;;;;;5302480;26;20389;-72
2024/05/05 04:17:59;;;;;;;;;;;;;;;;;;5301152;26;19930;-71
2024/05/05 04:20:28;;;;;;;;;;;;;;;;;;5304116;27;20261;-71
2024/05/05 04:22:56;;;;;;;;;;;;;;;;;;5305146;26;19930;-71
2024/05/05 04:25:25;;;;;;;;;;;;;;;;;;5304132;27;19942;-71
2024/05/05 04:27:57;;;;;;;;;;;;;;;;;;5302913;26;19931;-71
2024/05/05 04:30:25;;;;;;;;;;;;;;;;;;5303051;26;19966;-71
2024/05/05 04:32:54;;;;;;;;;;;;;;;;;;5302391;26;19930;-72
2024/05/05 04:35:23;;;;;;;;;;;;;;;;;;5280763;26;19931;-72
2024/05/05 04:37:51;;;;;;;;;;;;;;;;;;5297552;27;19930;-72
2024/05/05 04:40:20;;;;;;;;;;;;;;;;;;5282692;27;19942;-72
2024/05/05 04:42:49;;;;;;;;;;;;;;;;;;5306616;27;19971;-72
2024/05/05 04:45:18;;;;;;;;;;;;;;;;;;5305156;26;19938;-72
2024/05/05 04:47:46;;;;;;;;;;;;;;;;;;5305126;26;20005;-72
2024/05/05 04:50:15;;;;;;;;;;;;;;;;;;5303246;26;19937;-71
2024/05/05 04:52:44;;;;;;;;;;;;;;;;;;5303732;26;19930;-71
2024/05/05 04:55:12;;;;;;;;;;;;;;;;;;5306105;27;20021;-72
2024/05/05 04:57:41;;;;;;;;;;;;;;;;;;5307524;26;19951;-71
2024/05/05 05:00:10;;;;;;;;;;;;;;;;;;5307882;27;19971;-71
2024/05/05 05:02:39;;;;;;;;;;;;;;;;;;5306977;27;19937;-71
2024/05/05 05:05:07;;;;;;;;;;;;;;;;;;5303992;27;20290;-70
2024/05/05 05:07:36;;;;;;;;;;;;;;;;;;5302587;26;20370;-71
2024/05/05 05:10:05;;;;;;;;;;;;;;;;;;5306418;26;20485;-71
2024/05/05 05:12:33;;;;;;;;;;;;;;;;;;5305117;27;19981;-71
2024/05/05 05:14:59;;;;;;;;;;;;;;;;;;5301097;27;19941;-72
2024/05/05 05:17:28;;;;;;;;;;;;;;;;;;5303053;26;20036;-72
2024/05/05 05:19:57;;;;;;;;;;;;;;;;;;5303115;27;19945;-71
2024/05/05 05:22:26;;;;;;;;;;;;;;;;;;5305611;26;20373;-71
2024/05/05 05:24:54;;;;;;;;;;;;;;;;;;5304125;26;19930;-71
2024/05/05 05:27:23;;;;;;;;;;;;;;;;;;5305598;26;20262;-71
2024/05/05 05:29:52;;;;;;;;;;;;;;;;;;5305283;27;19930;-72
2024/05/05 05:32:21;;;;;;;;;;;;;;;;;;5303118;26;19937;-72
2024/05/05 05:34:50;;;;;;;;;;;;;;;;;;5304765;27;19930;-72
2024/05/05 05:37:19;;;;;;;;;;;;;;;;;;5285258;27;19938;-70
2024/05/05 05:39:47;;;;;;;;;;;;;;;;;;5307519;26;19941;-73
2024/05/05 05:42:18;;;;;;;;;;;;;;;;;;5307264;26;19937;-70
2024/05/05 05:44:47;;;;;;;;;;;;;;;;;;5289057;27;19930;-71
2024/05/05 05:47:15;;;;;;;;;;;;;;;;;;5309819;26;19930;-70
2024/05/05 05:49:44;;;;;;;;;;;;;;;;;;5308023;26;19938;-70
2024/05/05 05:52:13;;;;;;;;;;;;;;;;;;5304219;27;19935;-70
2024/05/05 05:54:41;;;;;;;;;;;;;;;;;;5310952;27;19934;-70
2024/05/05 05:57:10;;;;;;;;;;;;;;;;;;5309353;26;19931;-71
2024/05/05 05:59:39;;;;;;;;;;;;;;;;;;5306597;26;19941;-71
2024/05/05 06:02:07;;;;;;;;;;;;;;;;;;5307400;26;19938;-71
2024/05/05 06:04:36;;;;;;;;;;;;;;;;;;5307329;27;19937;-71
2024/05/05 06:07:05;;;;;;;;;;;;;;;;;;5307156;26;19930;-72
2024/05/05 06:09:33;;;;;;;;;;;;;;;;;;5308257;27;19945;-71
2024/05/05 06:12:02;;;;;;;;;;;;;;;;;;5307167;26;19931;-72
2024/05/05 06:14:31;;;;;;;;;;;;;;;;;;5307198;27;19939;-72
2024/05/05 06:16:59;;;;;;;;;;;;;;;;;;5304726;26;19984;-71
2024/05/05 06:19:28;;;;;;;;;;;;;;;;;;5306944;26;20278;-72
2024/05/05 06:21:57;;;;;;;;;;;;;;;;;;5307131;27;19934;-71
2024/05/05 06:24:26;;;;;;;;;;;;;;;;;;5306584;27;20393;-70
2024/05/05 06:26:54;;;;;;;;;;;;;;;;;;5287393;27;19995;-70
2024/05/05 06:29:23;;;;;;;;;;;;;;;;;;5306550;26;19937;-70
2024/05/05 06:31:52;;;;;;;;;;;;;;;;;;5306809;27;19938;-71
2024/05/05 06:34:20;;;;;;;;;;;;;;;;;;5302365;26;19942;-71
2024/05/05 06:36:49;;;;;;;;;;;;;;;;;;5306032;26;19930;-71
2024/05/05 06:39:19;;;;;;;;;;;;;;;;;;5306073;26;19938;-71
2024/05/05 06:41:47;;;;;;;;;;;;;;;;;;5306041;26;19938;-71
2024/05/05 06:44:16;;;;;;;;;;;;;;;;;;5305571;26;19935;-69
2024/05/05 06:46:45;;;;;;;;;;;;;;;;;;5306681;26;20481;-71
2024/05/05 06:49:13;;;;;;;;;;;;;;;;;;5305947;26;19931;-70
2024/05/05 06:51:42;;;;;;;;;;;;;;;;;;5304810;26;20390;-71
2024/05/05 06:54:11;;;;;;;;;;;;;;;;;;5301004;26;19930;-69
2024/05/05 06:56:39;;;;;;;;;;;;;;;;;;5304763;26;19937;-68
2024/05/05 06:59:08;;;;;;;;;;;;;;;;;;5303631;27;19930;-68
2024/05/05 07:01:37;;;;;;;;;;;;;;;;;;5299697;26;19935;-69
2024/05/05 07:04:05;;;;;;;;;;;;;;;;;;5304096;27;19994;-69
2024/05/05 07:06:34;;;;;;;;;;;;;;;;;;5303735;27;19969;-69
2024/05/05 07:09:03;;;;;;;;;;;;;;;;;;5304683;26;19934;-70
2024/05/05 07:11:31;;;;;;;;;;;;;;;;;;5305684;27;19931;-70
2024/05/05 07:14:00;;;;;;;;;;;;;;;;;;5303654;27;20280;-69
2024/05/05 07:16:29;;;;;;;;;;;;;;;;;;5304652;26;19941;-69
2024/05/05 07:18:57;;;;;;;;;;;;;;;;;;5300052;26;19930;-69
2024/05/05 07:21:26;;;;;;;;;;;;;;;;;;5301107;26;20384;-69
2024/05/05 07:23:55;;;;;;;;;;;;;;;;;;5303387;26;20485;-70
2024/05/05 07:26:23;;;;;;;;;;;;;;;;;;5305690;26;19937;-70
2024/05/05 07:28:52;;;;;;;;;;;;;;;;;;5306465;26;19931;-70
2024/05/05 07:31:20;;;;;;;;;;;;;;;;;;5305884;26;19931;-70
2024/05/05 07:33:49;;;;;;;;;;;;;;;;;;5305246;27;19930;-70
2024/05/05 07:36:18;;;;;;;;;;;;;;;;;;5303118;26;20333;-69
2024/05/05 07:38:47;;;;;;;;;;;;;;;;;;5304355;27;19931;-70
2024/05/05 07:41:15;;;;;;;;;;;;;;;;;;5306603;26;19930;-69
2024/05/05 07:43:44;;;;;;;;;;;;;;;;;;5300881;26;20381;-70
2024/05/05 07:46:13;;;;;;;;;;;;;;;;;;5302497;27;19938;-70
2024/05/05 07:48:41;;;;;;;;;;;;;;;;;;5302236;26;19966;-70
2024/05/05 07:51:10;;;;;;;;;;;;;;;;;;5295567;26;19938;-69
2024/05/05 07:53:39;;;;;;;;;;;;;;;;;;5299154;27;19935;-72
2024/05/05 07:56:07;;;;;;;;;;;;;;;;;;5303282;26;20432;-70
2024/05/05 07:58:36;;;;;;;;;;;;;;;;;;5303232;26;19946;-70
2024/05/05 08:01:05;;;;;;;;;;;;;;;;;;5303218;26;19930;-71
2024/05/05 08:03:33;;;;;;;;;;;;;;;;;;5302266;26;19937;-70
2024/05/05 08:06:02;;;;;;;;;;;;;;;;;;5302256;26;19945;-70
2024/05/05 08:08:31;;;;;;;;;;;;;;;;;;5300534;26;19931;-70
2024/05/05 08:10:59;;;;;;;;;;;;;;;;;;5299462;27;20468;-69
2024/05/05 08:13:28;;;;;;;;;;;;;;;;;;5302084;26;19937;-70
2024/05/05 08:15:57;;;;;;;;;;;;;;;;;;5302744;27;19930;-69
2024/05/05 08:18:25;;;;;;;;;;;;;;;;;;5303102;26;19930;-70
2024/05/05 08:20:54;;;;;;;;;;;;;;;;;;5302178;26;20465;-71
2024/05/05 08:23:23;;;;;;;;;;;;;;;;;;5297214;26;20265;-71
2024/05/05 08:25:51;;;;;;;;;;;;;;;;;;5300230;27;19931;-71
2024/05/05 08:28:20;;;;;;;;;;;;;;;;;;5298949;27;20263;-70
2024/05/05 08:30:49;;;;;;;;;;;;;;;;;;5302587;27;20374;-70
2024/05/05 08:33:17;;;;;;;;;;;;;;;;;;5303238;26;19930;-70
2024/05/05 08:35:46;;;;;;;;;;;;;;;;;;5303478;27;19942;-71
2024/05/05 08:38:15;;;;;;;;;;;;;;;;;;5302642;26;19931;-70
2024/05/05 08:40:43;;;;;;;;;;;;;;;;;;5297600;26;20465;-71
2024/05/05 08:43:12;;;;;;;;;;;;;;;;;;5300498;27;20050;-71
2024/05/05 08:45:41;;;;;;;;;;;;;;;;;;5301289;27;19938;-71
2024/05/05 08:48:12;;;;;;;;;;;;;;;;;;5302141;26;19938;-71
2024/05/05 08:50:41;;;;;;;;;;;;;;;;;;5300315;26;19977;-71
2024/05/05 08:53:09;;;;;;;;;;;;;;;;;;5304018;27;19931;-71
2024/05/05 08:55:38;;;;;;;;;;;;;;;;;;5302571;26;20377;-72
2024/05/05 08:58:07;;;;;;;;;;;;;;;;;;5301377;26;19962;-72
2024/05/05 09:00:35;;;;;;;;;;;;;;;;;;5302549;26;19931;-72
2024/05/05 09:03:04;;;;;;;;;;;;;;;;;;5302069;27;20361;-71
2024/05/05 09:05:33;;;;;;;;;;;;;;;;;;5301592;27;19930;-72
2024/05/05 09:08:02;;;;;;;;;;;;;;;;;;5297308;26;19944;-71
2024/05/05 09:10:31;;;;;;;;;;;;;;;;;;5302065;26;19937;-71
2024/05/05 09:12:59;;;;;;;;;;;;;;;;;;5301197;26;20365;-70
2024/05/05 09:15:28;;;;;;;;;;;;;;;;;;5300706;26;19937;-70
2024/05/05 09:17:57;;;;;;;;;;;;;;;;;;5305809;26;19931;-70
2024/05/05 09:20:27;;;;;;;;;;;;;;;;;;5297355;26;20278;-70
2024/05/05 09:22:55;;;;;;;;;;;;;;;;;;5302756;26;19954;-70
2024/05/05 09:25:24;;;;;;;;;;;;;;;;;;5305515;26;19931;-69
2024/05/05 09:27:52;;;;;;;;;;;;;;;;;;5303898;27;19937;-70
2024/05/05 09:30:21;;;;;;;;;;;;;;;;;;5304563;27;19930;-70
2024/05/05 09:32:50;;;;;;;;;;;;;;;;;;5304155;27;19930;-70
2024/05/05 09:35:19;;;;;;;;;;;;;;;;;;5304744;27;19931;-70
2024/05/05 09:37:47;;;;;;;;;;;;;;;;;;5305977;26;19930;-70
2024/05/05 09:40:16;;;;;;;;;;;;;;;;;;5302868;26;20431;-70
2024/05/05 09:42:45;;;;;;;;;;;;;;;;;;5303972;26;19931;-71
2024/05/05 09:45:13;;;;;;;;;;;;;;;;;;5301400;26;19931;-71
2024/05/05 09:47:42;;;;;;;;;;;;;;;;;;5301397;26;19946;-71
2024/05/05 09:50:11;;;;;;;;;;;;;;;;;;5300958;26;19930;-70
2024/05/05 09:52:39;;;;;;;;;;;;;;;;;;5300578;27;20259;-71
2024/05/05 09:55:08;;;;;;;;;;;;;;;;;;5300765;27;19937;-71
2024/05/05 09:57:37;;;;;;;;;;;;;;;;;;5291672;26;19931;-70
2024/05/05 10:00:06;;;;;;;;;;;;;;;;;;5298662;26;19980;-71
2024/05/05 10:02:34;;;;;;;;;;;;;;;;;;5302106;27;19942;-71
2024/05/05 10:05:03;;;;;;;;;;;;;;;;;;5302781;26;19938;-70
2024/05/05 10:07:32;;;;;;;;;;;;;;;;;;5298408;27;19931;-69
2024/05/05 10:10:00;;;;;;;;;;;;;;;;;;5301339;26;19930;-70
2024/05/05 10:12:29;;;;;;;;;;;;;;;;;;5301404;26;20350;-69
2024/05/05 10:14:58;;;;;;;;;;;;;;;;;;5303468;27;19930;-70
2024/05/05 10:17:27;;;;;;;;;;;;;;;;;;5302225;27;19938;-70
2024/05/05 10:19:57;;;;;;;;;;;;;;;;;;5298632;27;19938;-70
2024/05/05 10:22:26;;;;;;;;;;;;;;;;;;5301641;27;20308;-70
2024/05/05 10:24:54;;;;;;;;;;;;;;;;;;5302985;26;19938;-71
2024/05/05 10:27:23;;;;;;;;;;;;;;;;;;5303824;26;19938;-71
2024/05/05 10:29:52;;;;;;;;;;;;;;;;;;5303319;26;20374;-70
2024/05/05 10:32:20;;;;;;;;;;;;;;;;;;5303395;26;19937;-71
2024/05/05 10:34:51;;;;;;;;;;;;;;;;;;5303614;26;19931;-70
2024/05/05 10:37:20;;;;;;;;;;;;;;;;;;5304271;26;20481;-70
2024/05/05 10:39:49;;;;;;;;;;;;;;;;;;5303337;26;19938;-70
2024/05/05 10:42:17;;;;;;;;;;;;;;;;;;5303444;27;19993;-70
2024/05/05 10:44:46;;;;;;;;;;;;;;;;;;5298250;27;19930;-70
2024/05/05 10:47:15;;;;;;;;;;;;;;;;;;5301665;26;20262;-70
2024/05/05 10:49:43;;;;;;;;;;;;;;;;;;5302133;26;19934;-71
2024/05/05 10:52:12;;;;;;;;;;;;;;;;;;5300897;27;19930;-72
2024/05/05 10:54:41;;;;;;;;;;;;;;;;;;5298473;26;19931;-71
2024/05/05 10:57:09;;;;;;;;;;;;;;;;;;5296884;27;19938;-71
2024/05/05 10:59:38;;;;;;;;;;;;;;;;;;5297221;26;19938;-70
2024/05/05 11:02:07;;;;;;;;;;;;;;;;;;5303005;26;19930;-70
2024/05/05 11:04:35;;;;;;;;;;;;;;;;;;5299644;26;19930;-70
2024/05/05 11:07:04;;;;;;;;;;;;;;;;;;5300072;27;21681;-72
2024/05/05 11:09:33;;;;;;;;;;;;;;;;;;5301013;26;19930;-70
2024/05/05 11:12:02;;;;;;;;;;;;;;;;;;5301895;27;20379;-70
2024/05/05 11:14:31;;;;;;;;;;;;;;;;;;5300071;27;19931;-70
2024/05/05 11:17:03;;;;;;;;;;;;;;;;;;5300005;27;19959;-70
2024/05/05 11:19:31;;;;;;;;;;;;;;;;;;5302762;26;20244;-70
2024/05/05 11:22:00;;;;;;;;;;;;;;;;;;5300431;26;19931;-70
2024/05/05 11:24:29;;;;;;;;;;;;;;;;;;5301858;26;19941;-70
2024/05/05 11:26:58;;;;;;;;;;;;;;;;;;5301993;27;19937;-70
2024/05/05 11:29:26;;;;;;;;;;;;;;;;;;5301972;26;19940;-69
2024/05/05 11:31:55;;;;;;;;;;;;;;;;;;5301488;26;20351;-70
2024/05/05 11:34:24;;;;;;;;;;;;;;;;;;5301868;26;19942;-69
2024/05/05 11:36:52;;;;;;;;;;;;;;;;;;5300538;26;19942;-70
2024/05/05 11:39:21;;;;;;;;;;;;;;;;;;5300875;26;19938;-69
2024/05/05 11:41:50;;;;;;;;;;;;;;;;;;5302023;26;19934;-68
2024/05/05 11:44:18;;;;;;;;;;;;;;;;;;5302197;26;20384;-68
2024/05/05 11:46:47;;;;;;;;;;;;;;;;;;5303488;26;19938;-68
2024/05/05 11:49:16;;;;;;;;;;;;;;;;;;5302187;26;19937;-69
2024/05/05 11:51:44;;;;;;;;;;;;;;;;;;5299470;26;19930;-69
2024/05/05 11:54:13;;;;;;;;;;;;;;;;;;5300145;27;19938;-69
2024/05/05 11:56:42;;;;;;;;;;;;;;;;;;5297416;26;19931;-69
2024/05/05 11:59:12;;;;;;;;;;;;;;;;;;5298820;27;22356;-68
2024/05/05 12:01:41;;;;;;;;;;;;;;;;;;5303871;26;20377;-69
2024/05/05 12:04:10;;;;;;;;;;;;;;;;;;5303694;27;19930;-69
2024/05/05 12:06:38;;;;;;;;;;;;;;;;;;5303235;27;19935;-70
2024/05/05 12:09:07;;;;;;;;;;;;;;;;;;5302081;26;19930;-69
2024/05/05 12:11:36;;;;;;;;;;;;;;;;;;5303651;26;19930;-69
2024/05/05 12:14:04;;;;;;;;;;;;;;;;;;5303729;27;20061;-69
2024/05/05 12:16:33;;;;;;;;;;;;;;;;;;5304309;26;20278;-69
2024/05/05 12:19:02;;;;;;;;;;;;;;;;;;5304166;27;19934;-70
2024/05/05 12:21:30;;;;;;;;;;;;;;;;;;5300850;26;20366;-69
2024/05/05 12:23:59;;;;;;;;;;;;;;;;;;5300114;26;19930;-70
2024/05/05 12:26:28;;;;;;;;;;;;;;;;;;5302683;27;19955;-72
2024/05/05 12:28:57;;;;;;;;;;;;;;;;;;5303026;27;19954;-72
2024/05/05 12:31:26;;;;;;;;;;;;;;;;;;5303732;26;20000;-72
2024/05/05 12:33:55;;;;;;;;;;;;;;;;;;5303730;26;19931;-71
2024/05/05 12:36:24;;;;;;;;;;;;;;;;;;5303483;27;19938;-72
2024/05/05 12:38:52;;;;;;;;;;;;;;;;;;5301385;26;20078;-71
2024/05/05 12:41:21;;;;;;;;;;;;;;;;;;5303836;27;19931;-71
2024/05/05 12:43:50;;;;;;;;;;;;;;;;;;5301138;26;19945;-71
2024/05/05 12:46:18;;;;;;;;;;;;;;;;;;5302996;26;19931;-69
2024/05/05 12:48:47;;;;;;;;;;;;;;;;;;5303371;26;20373;-70
2024/05/05 12:51:16;;;;;;;;;;;;;;;;;;5303752;27;20374;-71
2024/05/05 12:53:44;;;;;;;;;;;;;;;;;;5303591;26;19938;-71
2024/05/05 12:56:13;;;;;;;;;;;;;;;;;;5302127;26;19935;-71
2024/05/05 12:58:42;;;;;;;;;;;;;;;;;;5302647;27;19930;-71
2024/05/05 13:01:11;;;;;;;;;;;;;;;;;;5301706;26;19937;-71
2024/05/05 13:03:39;;;;;;;;;;;;;;;;;;5302716;26;19931;-73
2024/05/05 13:06:08;;;;;;;;;;;;;;;;;;5303070;26;19930;-72
2024/05/05 13:08:37;;;;;;;;;;;;;;;;;;5303192;26;19930;-73
2024/05/05 13:11:05;;;;;;;;;;;;;;;;;;5303116;27;19930;-72
2024/05/05 13:13:34;;;;;;;;;;;;;;;;;;5302928;26;19934;-72
2024/05/05 13:16:03;;;;;;;;;;;;;;;;;;5303301;26;20484;-72
2024/05/05 13:18:31;;;;;;;;;;;;;;;;;;5298776;26;19938;-72
2024/05/05 13:21:00;;;;;;;;;;;;;;;;;;5303847;26;19931;-73
2024/05/05 13:23:29;;;;;;;;;;;;;;;;;;5303930;26;19930;-72
2024/05/05 13:25:58;;;;;;;;;;;;;;;;;;5304563;27;20385;-74
2024/05/05 13:28:27;;;;;;;;;;;;;;;;;;5304788;27;19937;-73
2024/05/05 13:30:56;;;;;;;;;;;;;;;;;;5305222;26;19942;-72
2024/05/05 13:33:25;;;;;;;;;;;;;;;;;;5303238;26;19931;-72
2024/05/05 13:35:53;;;;;;;;;;;;;;;;;;5300390;27;19931;-72
2024/05/05 13:38:22;;;;;;;;;;;;;;;;;;5304092;27;19941;-71
2024/05/05 13:40:51;;;;;;;;;;;;;;;;;;5304872;27;19934;-72
2024/05/05 13:43:19;;;;;;;;;;;;;;;;;;5304888;26;19934;-72
2024/05/05 13:45:48;;;;;;;;;;;;;;;;;;5303037;26;19938;-71
2024/05/05 13:48:18;;;;;;;;;;;;;;;;;;5304876;26;19932;-71
2024/05/05 13:50:46;;;;;;;;;;;;;;;;;;5304247;27;19942;-72
2024/05/05 13:53:15;;;;;;;;;;;;;;;;;;5304262;26;19930;-72
2024/05/05 13:55:44;;;;;;;;;;;;;;;;;;5304613;26;19937;-72
2024/05/05 13:58:13;;;;;;;;;;;;;;;;;;5304038;27;20274;-72
2024/05/05 14:00:42;;;;;;;;;;;;;;;;;;5304446;27;19942;-72
2024/05/05 14:03:10;;;;;;;;;;;;;;;;;;5304734;26;20266;-72
2024/05/05 14:05:39;;;;;;;;;;;;;;;;;;5306965;26;19930;-72
2024/05/05 14:08:08;;;;;;;;;;;;;;;;;;5307421;27;20000;-72
2024/05/05 14:10:36;;;;;;;;;;;;;;;;;;5308022;26;20535;-72
2024/05/05 14:13:05;;;;;;;;;;;;;;;;;;5307527;26;19930;-72
2024/05/05 14:15:34;;;;;;;;;;;;;;;;;;5307449;26;19954;-72
2024/05/05 14:18:02;;;;;;;;;;;;;;;;;;5307066;27;20404;-72
2024/05/05 14:20:31;;;;;;;;;;;;;;;;;;5303463;26;19930;-72
2024/05/05 14:23:00;;;;;;;;;;;;;;;;;;5307737;27;20000;-72
2024/05/05 14:25:28;;;;;;;;;;;;;;;;;;5302718;26;19942;-65
2024/05/05 14:27:57;;;;;;;;;;;;;;;;;;5306600;27;19938;-66
2024/05/05 14:30:26;;;;;;;;;;;;;;;;;;5303851;27;20374;-71
2024/05/05 14:32:54;;;;;;;;;;;;;;;;;;5306277;27;19938;-73
2024/05/05 14:35:23;;;;;;;;;;;;;;;;;;5305964;26;19930;-71
2024/05/05 14:37:52;;;;;;;;;;;;;;;;;;5307136;26;19930;-71
2024/05/05 14:40:20;;;;;;;;;;;;;;;;;;5305850;27;20409;-70
2024/05/05 14:42:49;;;;;;;;;;;;;;;;;;5297493;26;19938;-72
2024/05/05 14:45:18;;;;;;;;;;;;;;;;;;5302755;26;19931;-72
2024/05/05 14:47:46;;;;;;;;;;;;;;;;;;5328129;26;19930;-71
2024/05/05 14:50:15;;;;;;;;;;;;;;;;;;5311411;26;19938;-72
2024/05/05 14:52:46;;;;;;;;;;;;;;;;;;5299965;26;19930;-71
2024/05/05 14:55:15;;;;;;;;;;;;;;;;;;5305316;26;19937;-71
2024/05/05 14:57:44;;;;;;;;;;;;;;;;;;5318129;26;19934;-72
2024/05/05 15:00:12;;;;;;;;;;;;;;;;;;5319438;26;19937;-70
2024/05/05 15:02:41;;;;;;;;;;;;;;;;;;5295694;26;19938;-71
2024/05/05 15:05:10;;;;;;;;;;;;;;;;;;5309882;26;19935;-74
2024/05/05 15:07:39;;;;;;;;;;;;;;;;;;5323488;26;19937;-72
2024/05/05 15:10:07;;;;;;;;;;;;;;;;;;5306253;27;19931;-72
2024/05/05 15:12:36;;;;;;;;;;;;;;;;;;5313258;26;19930;-72
2024/05/05 15:15:05;;;;;;;;;;;;;;;;;;5308943;26;19930;-71
2024/05/05 15:17:33;;;;;;;;;;;;;;;;;;5309586;26;20000;-72
2024/05/05 15:20:02;;;;;;;;;;;;;;;;;;5303342;26;20411;-72
2024/05/05 15:22:31;;;;;;;;;;;;;;;;;;5308236;26;19930;-72
2024/05/05 15:24:59;;;;;;;;;;;;;;;;;;5306331;27;19941;-72
2024/05/05 15:27:28;;;;;;;;;;;;;;;;;;5308101;26;19930;-72
2024/05/05 15:29:57;;;;;;;;;;;;;;;;;;5317114;26;20351;-71
2024/05/05 15:32:25;;;;;;;;;;;;;;;;;;5324749;26;19931;-71
2024/05/05 15:34:54;;;;;;;;;;;;;;;;;;5314531;26;19930;-71
2024/05/05 15:37:23;;;;;;;;;;;;;;;;;;5333487;26;20269;-72
2024/05/05 15:39:51;;;;;;;;;;;;;;;;;;5306549;26;19941;-71
2024/05/05 15:42:20;;;;;;;;;;;;;;;;;;5300547;26;19931;-71
2024/05/05 15:44:49;;;;;;;;;;;;;;;;;;5304995;26;19937;-71
2024/05/05 15:47:17;;;;;;;;;;;;;;;;;;5303345;27;19935;-71
2024/05/05 15:49:46;;;;;;;;;;;;;;;;;;5294025;27;19945;-71
2024/05/05 15:52:15;;;;;;;;;;;;;;;;;;5303708;26;19930;-71
2024/05/05 15:54:44;;;;;;;;;;;;;;;;;;5273850;27;20367;-71
2024/05/05 15:57:12;;;;;;;;;;;;;;;;;;5305905;27;19930;-71
2024/05/05 15:59:41;;;;;;;;;;;;;;;;;;5299959;27;20274;-73
2024/05/05 16:02:10;;;;;;;;;;;;;;;;;;5300231;27;20635;-71
2024/05/05 16:04:38;;;;;;;;;;;;;;;;;;5305349;26;20453;-72
2024/05/05 16:07:07;;;;;;;;;;;;;;;;;;5298176;26;19930;-71
2024/05/05 16:09:36;;;;;;;;;;;;;;;;;;5301448;26;19930;-71
2024/05/05 16:12:04;;;;;;;;;;;;;;;;;;5303668;26;20381;-72
2024/05/05 16:14:33;;;;;;;;;;;;;;;;;;5304371;27;20393;-71
2024/05/05 16:17:02;;;;;;;;;;;;;;;;;;5305381;27;20366;-72
2024/05/05 16:19:30;;;;;;;;;;;;;;;;;;5304272;27;19931;-71
2024/05/05 16:21:59;;;;;;;;;;;;;;;;;;5293104;27;19931;-72
2024/05/05 16:24:28;;;;;;;;;;;;;;;;;;5298105;26;19931;-72
2024/05/05 16:26:56;;;;;;;;;;;;;;;;;;5298697;26;20370;-71
2024/05/05 16:29:25;;;;;;;;;;;;;;;;;;5303069;27;19931;-71
2024/05/05 16:31:54;;;;;;;;;;;;;;;;;;5304269;26;19938;-71
2024/05/05 16:34:22;;;;;;;;;;;;;;;;;;5305388;26;19938;-72
2024/05/05 16:36:51;;;;;;;;;;;;;;;;;;5303273;26;19938;-72
2024/05/05 16:39:20;;;;;;;;;;;;;;;;;;5300573;27;19930;-71
2024/05/05 16:41:48;;;;;;;;;;;;;;;;;;5302754;26;19937;-75
2024/05/05 16:44:19;;;;;;;;;;;;;;;;;;5302966;26;19938;-72
2024/05/05 16:46:48;;;;;;;;;;;;;;;;;;5304333;27;19938;-71
2024/05/05 16:49:16;;;;;;;;;;;;;;;;;;5303893;26;19930;-71
2024/05/05 16:51:45;;;;;;;;;;;;;;;;;;5308093;26;19988;-70
2024/05/05 16:54:14;;;;;;;;;;;;;;;;;;5304716;26;19942;-71